createdAt,value
2019-02-24T00:03:11.999Z,-0.17
2019-02-24T00:07:15.414Z,-0.36
2019-02-24T00:11:21.953Z,-0.45
2019-02-24T00:15:25.328Z,-0.70
2019-02-24T00:19:28.709Z,-0.72
2019-02-24T00:23:32.122Z,-0.78
2019-02-24T00:27:35.560Z,-0.80
2019-02-24T00:31:38.886Z,-0.80
2019-02-24T00:35:42.242Z,-0.74
2019-02-24T00:39:45.551Z,-0.80
2019-02-24T00:43:48.958Z,-0.94
2019-02-24T00:47:52.367Z,-0.84
2019-02-24T00:51:55.773Z,-0.62
2019-02-24T00:55:59.180Z,-0.45
2019-02-24T01:00:02.591Z,-0.75
2019-02-24T01:04:05.998Z,-0.87
2019-02-24T01:08:09.418Z,-0.73
2019-02-24T01:12:13.123Z,-0.82
2019-02-24T01:16:16.534Z,-0.72
2019-02-24T01:20:19.835Z,-0.73
2019-02-24T01:24:23.252Z,-0.74
2019-02-24T01:28:26.669Z,-0.73
2019-02-24T01:32:30.067Z,-0.74
2019-02-24T01:36:33.380Z,-0.90
2019-02-24T01:40:36.783Z,-0.62
2019-02-24T01:44:40.190Z,-0.64
2019-02-24T01:48:43.702Z,-0.86
2019-02-24T01:52:47.063Z,-0.97
2019-02-24T01:56:50.417Z,-0.93
2019-02-24T02:00:53.828Z,-0.75
2019-02-24T02:04:58.531Z,-0.63
2019-02-24T02:09:01.972Z,-0.80
2019-02-24T02:13:05.386Z,-0.85
2019-02-24T02:17:08.790Z,-1.01
2019-02-24T02:21:12.200Z,-0.99
2019-02-24T02:25:15.586Z,-0.99
2019-02-24T02:29:19.018Z,-1.00
2019-02-24T02:33:22.430Z,-1.20
2019-02-24T02:37:25.834Z,-1.19
2019-02-24T02:41:29.245Z,-1.30
2019-02-24T02:45:33.677Z,-1.49
2019-02-24T02:49:37.090Z,-1.49
2019-02-24T02:53:40.490Z,-1.44
2019-02-24T02:57:43.800Z,-1.39
2019-02-24T03:01:47.117Z,-1.38
2019-02-24T03:05:58.092Z,-1.39
2019-02-24T03:10:02.875Z,-1.30
2019-02-24T03:14:06.342Z,-1.22
2019-02-24T03:18:09.661Z,-1.15
2019-02-24T03:22:13.071Z,-1.23
2019-02-24T03:26:16.374Z,-1.23
2019-02-24T03:30:19.773Z,-1.17
2019-02-24T03:34:23.079Z,-1.30
2019-02-24T03:38:26.491Z,-1.48
2019-02-24T03:42:30.143Z,-1.58
2019-02-24T03:46:33.525Z,-1.85
2019-02-24T03:50:37.021Z,-2.04
2019-02-24T03:54:40.429Z,-2.06
2019-02-24T03:58:43.838Z,-2.14
2019-02-24T04:02:47.146Z,-2.04
2019-02-24T04:06:50.460Z,-1.96
2019-02-24T04:10:53.865Z,-1.91
2019-02-24T04:14:57.267Z,-1.72
2019-02-24T04:19:00.675Z,-1.86
2019-02-24T04:23:04.160Z,-1.90
2019-02-24T04:27:07.495Z,-1.96
2019-02-24T04:31:10.909Z,-1.98
2019-02-24T04:35:14.197Z,-2.13
2019-02-24T04:39:17.617Z,-2.37
2019-02-24T04:43:21.037Z,-2.38
2019-02-24T04:47:24.354Z,-2.33
2019-02-24T04:51:27.741Z,-2.25
2019-02-24T04:55:31.151Z,-2.23
2019-02-24T04:59:35.345Z,-2.14
2019-02-24T05:03:38.772Z,-2.07
2019-02-24T05:07:42.096Z,-2.02
2019-02-24T05:11:45.712Z,-1.95
2019-02-24T05:15:49.115Z,-1.98
2019-02-24T05:19:52.514Z,-1.92
2019-02-24T05:23:55.939Z,-2.02
2019-02-24T05:27:59.236Z,-2.12
2019-02-24T05:32:02.648Z,-2.11
2019-02-24T05:36:05.955Z,-2.36
2019-02-24T05:40:09.364Z,-2.60
2019-02-24T05:44:12.997Z,-2.80
2019-02-24T05:48:16.350Z,-2.68
2019-02-24T05:52:19.693Z,-2.61
2019-02-24T05:56:23.110Z,-2.54
2019-02-24T06:00:26.525Z,-2.33
2019-02-24T06:04:29.921Z,-2.28
2019-02-24T06:08:33.324Z,-2.25
2019-02-24T06:12:36.739Z,-2.13
2019-02-24T06:16:40.123Z,-2.15
2019-02-24T06:20:43.447Z,-2.30
2019-02-24T06:24:46.860Z,-2.44
2019-02-24T06:28:50.367Z,-2.44
2019-02-24T06:32:53.881Z,-2.53
2019-02-24T06:36:57.309Z,-2.27
2019-02-24T06:41:00.700Z,-1.80
2019-02-24T06:45:05.119Z,-1.50
2019-02-24T06:49:08.541Z,-1.05
2019-02-24T06:53:12.950Z,0.25
2019-02-24T06:57:16.981Z,2.60
2019-02-24T07:01:20.404Z,4.71
2019-02-24T07:05:23.824Z,7.04
2019-02-24T07:09:27.241Z,7.69
2019-02-24T07:13:30.649Z,6.90
2019-02-24T07:17:34.051Z,6.95
2019-02-24T07:21:37.445Z,6.09
2019-02-24T07:25:40.875Z,6.20
2019-02-24T07:29:44.216Z,6.70
2019-02-24T07:33:47.778Z,6.36
2019-02-24T07:37:51.104Z,5.91
2019-02-24T07:41:54.488Z,5.69
2019-02-24T07:45:57.787Z,5.46
2019-02-24T07:50:01.222Z,5.77
2019-02-24T07:54:04.520Z,6.28
2019-02-24T07:58:07.918Z,8.10
2019-02-24T08:02:11.225Z,7.09
2019-02-24T08:06:14.520Z,7.38
2019-02-24T08:10:17.941Z,7.92
2019-02-24T08:14:21.262Z,7.92
2019-02-24T08:18:24.660Z,8.07
2019-02-24T08:22:28.006Z,8.90
2019-02-24T08:26:31.335Z,8.73
2019-02-24T08:30:41.627Z,7.74
2019-02-24T08:34:40.954Z,6.51
2019-02-24T08:38:44.362Z,6.28
2019-02-24T08:42:47.772Z,7.49
2019-02-24T08:46:51.192Z,7.61
2019-02-24T08:50:54.588Z,6.31
2019-02-24T08:54:57.997Z,6.31
2019-02-24T08:59:01.405Z,7.31
2019-02-24T09:03:04.814Z,7.72
2019-02-24T09:07:08.635Z,8.35
2019-02-24T09:11:12.013Z,8.31
2019-02-24T09:15:15.696Z,7.88
2019-02-24T09:19:19.259Z,10.70
2019-02-24T09:23:22.643Z,13.80
2019-02-24T09:27:25.983Z,16.51
2019-02-24T09:31:29.612Z,18.15
2019-02-24T09:35:33.005Z,17.36
2019-02-24T09:39:36.414Z,16.77
2019-02-24T09:43:39.821Z,15.74
2019-02-24T09:47:46.720Z,12.62
2019-02-24T09:51:48.589Z,13.71
2019-02-24T09:55:51.995Z,12.88
2019-02-24T09:59:55.406Z,12.96
2019-02-24T10:03:58.793Z,15.91
2019-02-24T10:08:02.226Z,19.26
2019-02-24T10:12:05.594Z,19.74
2019-02-24T10:16:09.039Z,20.97
2019-02-24T10:20:12.949Z,21.37
2019-02-24T10:24:16.369Z,20.78
2019-02-24T10:28:19.781Z,22.73
2019-02-24T10:32:23.203Z,22.96
2019-02-24T10:36:26.598Z,21.16
2019-02-24T10:40:30.004Z,20.95
2019-02-24T10:44:33.416Z,23.02
2019-02-24T10:48:36.752Z,24.95
2019-02-24T10:52:40.244Z,22.12
2019-02-24T10:56:43.765Z,21.68
2019-02-24T11:00:47.154Z,21.94
2019-02-24T11:04:50.588Z,20.00
2019-02-24T11:08:53.894Z,20.42
2019-02-24T11:12:57.483Z,22.29
2019-02-24T11:17:00.895Z,21.99
2019-02-24T11:21:04.299Z,19.99
2019-02-24T11:25:09.617Z,18.57
2019-02-24T11:29:13.052Z,16.44
2019-02-24T11:33:16.473Z,14.83
2019-02-24T11:37:19.884Z,13.49
2019-02-24T11:41:23.291Z,13.54
2019-02-24T11:45:26.700Z,12.90
2019-02-24T11:49:30.121Z,12.64
2019-02-24T11:53:33.518Z,13.18
2019-02-24T11:57:36.847Z,12.99
2019-02-24T12:01:47.315Z,13.25
2019-02-24T12:05:45.279Z,13.39
2019-02-24T12:09:48.691Z,13.29
2019-02-24T12:13:52.205Z,13.47
2019-02-24T12:17:55.609Z,13.20
2019-02-24T12:21:58.904Z,13.20
2019-02-24T12:26:02.221Z,13.42
2019-02-24T12:30:08.909Z,12.73
2019-02-24T12:34:12.256Z,12.95
2019-02-24T12:38:15.552Z,13.12
2019-02-24T12:42:18.936Z,13.12
2019-02-24T12:46:22.342Z,13.47
2019-02-24T12:50:25.671Z,13.29
2019-02-24T12:54:29.062Z,13.38
2019-02-24T12:58:32.455Z,13.44
2019-02-24T13:02:35.762Z,13.32
2019-02-24T13:06:39.083Z,13.32
2019-02-24T13:10:42.377Z,13.85
2019-02-24T13:14:46.104Z,13.85
2019-02-24T13:18:49.498Z,14.01
2019-02-24T13:22:52.817Z,14.23
2019-02-24T13:26:56.224Z,14.18
2019-02-24T13:30:59.562Z,14.21
2019-02-24T13:35:04.597Z,14.08
2019-02-24T13:39:07.993Z,13.83
2019-02-24T13:43:11.360Z,13.96
2019-02-24T13:47:14.710Z,13.77
2019-02-24T13:51:18.116Z,13.80
2019-02-24T13:55:21.443Z,14.01
2019-02-24T13:59:24.828Z,14.09
2019-02-24T14:03:28.139Z,13.74
2019-02-24T14:07:31.436Z,14.00
2019-02-24T14:11:34.798Z,14.15
2019-02-24T14:15:38.216Z,14.07
2019-02-24T14:19:41.612Z,13.98
2019-02-24T14:23:44.905Z,13.80
2019-02-24T14:27:48.281Z,13.90
2019-02-24T14:31:51.589Z,13.78
2019-02-24T14:35:54.926Z,13.76
2019-02-24T14:39:58.243Z,13.75
2019-02-24T14:44:01.556Z,13.74
2019-02-24T14:48:05.743Z,13.72
2019-02-24T14:52:09.074Z,13.50
2019-02-24T14:56:12.561Z,12.95
2019-02-24T15:00:21.737Z,12.74
2019-02-24T15:04:25.028Z,12.62
2019-02-24T15:08:28.414Z,12.55
2019-02-24T15:12:31.727Z,12.53
2019-02-24T15:16:35.046Z,12.16
2019-02-24T15:20:38.371Z,11.96
2019-02-24T15:24:41.678Z,11.90
2019-02-24T15:28:44.967Z,11.85
2019-02-24T15:32:51.522Z,11.87
2019-02-24T15:36:53.507Z,11.73
2019-02-24T15:40:56.915Z,11.63
2019-02-24T15:45:00.249Z,11.48
2019-02-24T15:49:03.634Z,11.36
2019-02-24T15:53:07.040Z,11.51
2019-02-24T15:57:11.580Z,11.39
2019-02-24T16:01:14.989Z,11.23
2019-02-24T16:05:18.291Z,10.97
2019-02-24T16:09:21.700Z,10.72
2019-02-24T16:13:25.015Z,10.56
2019-02-24T16:17:28.340Z,10.40
2019-02-24T16:21:31.823Z,9.96
2019-02-24T16:25:35.168Z,9.63
2019-02-24T16:29:38.445Z,9.25
2019-02-24T16:33:41.736Z,8.92
2019-02-24T16:37:45.162Z,8.55
2019-02-24T16:41:48.474Z,8.21
2019-02-24T16:45:52.082Z,7.87
2019-02-24T16:49:55.401Z,7.52
2019-02-24T16:53:58.737Z,7.16
2019-02-24T16:58:02.060Z,6.87
2019-02-24T17:02:05.375Z,6.37
2019-02-24T17:06:08.708Z,5.68
2019-02-24T17:10:19.902Z,5.34
2019-02-24T17:14:24.809Z,5.27
2019-02-24T17:18:28.188Z,5.22
2019-02-24T17:22:31.507Z,5.00
2019-02-24T17:26:34.800Z,4.92
2019-02-24T17:30:38.090Z,4.79
2019-02-24T17:34:41.481Z,4.47
2019-02-24T17:38:44.891Z,4.15
2019-02-24T17:42:48.221Z,4.01
2019-02-24T17:46:51.486Z,4.05
2019-02-24T17:50:55.126Z,3.95
2019-02-24T17:54:58.423Z,3.71
2019-02-24T17:59:01.838Z,3.59
2019-02-24T18:03:05.171Z,3.63
2019-02-24T18:07:08.556Z,3.59
2019-02-24T18:11:11.891Z,3.38
2019-02-24T18:15:15.273Z,3.38
2019-02-24T18:19:18.595Z,3.43
2019-02-24T18:23:21.911Z,3.34
2019-02-24T18:27:25.284Z,3.21
2019-02-24T18:31:28.697Z,3.23
2019-02-24T18:35:32.002Z,3.26
2019-02-24T18:39:35.407Z,3.27
2019-02-24T18:43:38.742Z,2.81
2019-02-24T18:47:42.054Z,2.42
2019-02-24T18:51:45.378Z,2.24
2019-02-24T18:55:48.668Z,2.27
2019-02-24T18:59:52.044Z,2.12
2019-02-24T19:03:57.949Z,2.18
2019-02-24T19:08:00.505Z,2.33
2019-02-24T19:12:03.990Z,2.53
2019-02-24T19:16:07.391Z,2.67
2019-02-24T19:20:16.131Z,2.42
2019-02-24T19:24:19.466Z,2.40
2019-02-24T19:28:22.922Z,2.55
2019-02-24T19:32:26.326Z,2.60
2019-02-24T19:36:29.745Z,2.31
2019-02-24T19:40:33.354Z,2.19
2019-02-24T19:44:36.751Z,2.20
2019-02-24T19:48:42.167Z,2.33
2019-02-24T19:52:45.316Z,2.44
2019-02-24T19:56:48.751Z,2.39
2019-02-24T20:00:52.224Z,2.38
2019-02-24T20:04:55.607Z,2.34
2019-02-24T20:08:58.904Z,1.95
2019-02-24T20:13:02.317Z,1.81
2019-02-24T20:17:05.701Z,1.85
2019-02-24T20:21:09.031Z,1.81
2019-02-24T20:25:13.995Z,1.94
2019-02-24T20:29:17.334Z,2.09
2019-02-24T20:33:20.692Z,2.14
2019-02-24T20:37:24.000Z,2.10
2019-02-24T20:41:27.410Z,1.52
2019-02-24T20:45:30.915Z,1.47
2019-02-24T20:49:34.428Z,1.59
2019-02-24T20:53:37.797Z,1.74
2019-02-24T20:57:41.123Z,1.73
2019-02-24T21:01:44.457Z,1.59
2019-02-24T21:05:48.575Z,1.53
2019-02-24T21:09:51.881Z,1.49
2019-02-24T21:13:55.291Z,1.58
2019-02-24T21:17:58.596Z,1.65
2019-02-24T21:22:02.012Z,1.61
2019-02-24T21:26:05.418Z,1.82
2019-02-24T21:30:14.763Z,1.56
2019-02-24T21:34:18.273Z,1.47
2019-02-24T21:38:21.565Z,1.41
2019-02-24T21:42:25.006Z,1.30
2019-02-24T21:46:28.328Z,1.34
2019-02-24T21:50:31.808Z,1.48
2019-02-24T21:54:35.293Z,1.39
2019-02-24T21:58:38.585Z,1.11
2019-02-24T22:02:41.931Z,1.02
2019-02-24T22:06:45.346Z,0.98
2019-02-24T22:10:48.750Z,1.02
2019-02-24T22:14:52.159Z,0.80
2019-02-24T22:18:55.465Z,0.82
2019-02-24T22:22:58.885Z,0.74
2019-02-24T22:27:02.291Z,0.57
2019-02-24T22:31:05.693Z,0.62
2019-02-24T22:35:09.557Z,0.71
2019-02-24T22:39:12.919Z,0.79
2019-02-24T22:43:16.330Z,0.80
2019-02-24T22:47:19.736Z,0.76
2019-02-24T22:51:23.104Z,0.67
2019-02-24T22:55:26.462Z,0.68
2019-02-24T22:59:29.763Z,0.78
2019-02-24T23:03:35.394Z,0.83
2019-02-24T23:07:39.073Z,0.73
2019-02-24T23:11:42.365Z,0.74
2019-02-24T23:15:45.752Z,0.61
2019-02-24T23:19:49.065Z,0.63
2019-02-24T23:23:52.467Z,0.73
2019-02-24T23:27:55.871Z,0.73
2019-02-24T23:31:59.171Z,0.59
2019-02-24T23:36:02.591Z,0.62
2019-02-24T23:40:07.975Z,0.58
2019-02-24T23:44:11.555Z,0.67
2019-02-24T23:48:14.963Z,0.60
2019-02-24T23:52:19.296Z,0.54
2019-02-24T23:56:22.585Z,0.49
